Time;durP1;ratioP1;P1;durP2;ratioP2;P2;SDS_P1;SDS_P2;PMS_P1;PMS_P2;Temp;Humidity;BMP_temperature;BMP_pressure;BME280_temperature;BME280_humidity;BME280_pressure;Samples;Min_cycle;Max_cycle;Signal;HPM_P1;HPM_P2
2022/12/26 00:00:26;;;;;;;5.03;2.65;;;9.80;99.90;;;;;;5074651;28;19912;-64
2022/12/26 00:02:52;;;;;;;;;;;9.80;99.90;;;;;;5062318;28;20047;-64
2022/12/26 00:05:17;;;;;;;4.35;2.55;;;9.80;99.90;;;;;;5058588;28;19920;-64
2022/12/26 00:07:43;;;;;;;;;;;9.80;99.90;;;;;;5050390;28;20040;-64
2022/12/26 00:10:09;;;;;;;5.60;2.30;;;9.80;99.90;;;;;;5061451;28;19974;-64
2022/12/26 00:12:35;;;;;;;;;;;9.80;99.90;;;;;;5058217;28;20048;-65
2022/12/26 00:15:01;;;;;;;4.90;2.60;;;9.80;99.90;;;;;;5057437;28;19917;-62
2022/12/26 00:17:26;;;;;;;6.88;2.60;;;9.80;99.90;;;;;;5049506;28;20041;-62
2022/12/26 00:19:52;;;;;;;2.75;1.90;;;9.80;99.90;;;;;;5042742;28;20547;-64
2022/12/26 00:22:18;;;;;;;;;;;9.90;99.90;;;;;;5035113;28;20119;-64
2022/12/26 00:24:43;;;;;;;3.92;2.22;;;9.90;99.90;;;;;;5045413;28;19916;-61
2022/12/26 00:27:09;;;;;;;;;;;9.90;99.90;;;;;;5042795;28;20056;-64
2022/12/26 00:29:34;;;;;;;7.45;2.45;;;9.90;99.90;;;;;;5046183;28;19947;-63
2022/12/26 00:32:00;;;;;;;;;;;9.90;99.90;;;;;;5041293;28;20041;-64
2022/12/26 00:34:26;;;;;;;5.60;1.98;;;9.90;99.90;;;;;;5046304;28;19923;-64
2022/12/26 00:36:51;;;;;;;;;;;9.90;99.90;;;;;;5039832;28;20512;-65
2022/12/26 00:39:17;;;;;;;6.15;1.75;;;10.00;99.90;;;;;;5043315;28;20710;-63
2022/12/26 00:41:43;;;;;;;3.70;1.42;;;10.00;99.90;;;;;;5043584;28;20039;-62
2022/12/26 00:44:08;;;;;;;;;;;10.00;99.90;;;;;;5043596;28;20072;-62
2022/12/26 00:46:34;;;;;;;3.10;1.95;;;10.00;99.90;;;;;;5040483;28;19971;-62
2022/12/26 00:48:59;;;;;;;;;;;10.00;99.90;;;;;;5043862;28;20033;-62
2022/12/26 00:51:25;;;;;;;6.00;1.70;;;10.00;99.90;;;;;;5039703;28;19947;-63
2022/12/26 00:53:51;;;;;;;;;;;9.90;99.90;;;;;;5043922;28;20044;-61
2022/12/26 00:56:17;;;;;;;2.35;1.65;;;9.90;99.90;;;;;;5039705;28;19921;-63
2022/12/26 00:58:42;;;;;;;;;;;9.90;99.90;;;;;;5040082;28;20099;-61
2022/12/26 01:01:15;;;;;;;4.70;1.70;;;9.80;99.90;;;;;;5041428;28;20525;-63
2022/12/26 01:03:42;;;;;;;6.53;1.90;;;9.90;99.90;;;;;;5043993;28;20072;-61
2022/12/26 01:06:07;;;;;;;4.82;1.73;;;9.90;99.90;;;;;;5039484;28;20564;-62
2022/12/26 01:08:33;;;;;;;;;;;9.80;99.90;;;;;;5044755;28;20049;-64
2022/12/26 01:11:06;;;;;;;2.75;1.27;;;9.80;99.90;;;;;;5035033;28;19928;-64
2022/12/26 01:13:33;;;;;;;5.43;1.92;;;9.90;99.90;;;;;;5073028;28;20076;-63
2022/12/26 01:15:58;;;;;;;2.47;1.10;;;9.90;99.90;;;;;;5040165;28;20397;-61
2022/12/26 01:18:24;;;;;;;;;;;9.90;99.90;;;;;;5044474;28;20056;-64
2022/12/26 01:20:50;;;;;;;5.78;1.83;;;9.90;99.90;;;;;;5040505;28;19928;-63
2022/12/26 01:23:16;;;;;;;5.97;1.27;;;9.90;99.90;;;;;;5036122;28;20033;-61
2022/12/26 01:25:42;;;;;;;3.67;1.38;;;9.90;99.90;;;;;;5031247;28;20501;-63
2022/12/26 01:28:07;;;;;;;;;;;9.80;99.90;;;;;;5043754;28;20040;-63
2022/12/26 01:30:33;;;;;;;2.10;1.35;;;9.80;99.90;;;;;;5038583;28;19932;-62
2022/12/26 01:32:58;;;;;;;;;;;9.80;99.90;;;;;;5045810;28;20544;-63
2022/12/26 01:35:24;;;;;;;2.90;1.63;;;9.80;99.90;;;;;;5040412;28;19924;-63
2022/12/26 01:37:50;;;;;;;;;;;9.80;99.90;;;;;;5044145;28;20108;-62
2022/12/26 01:40:15;;;;;;;2.85;1.55;;;9.80;99.90;;;;;;5043277;28;19921;-65
2022/12/26 01:42:41;;;;;;;;;;;9.70;99.90;;;;;;5046110;28;20048;-63
2022/12/26 01:45:25;;;;;;;3.10;1.83;;;9.70;99.90;;;;;;5043604;28;20677;-62
2022/12/26 01:47:53;;;;;;;5.28;2.42;;;9.70;99.90;;;;;;5041803;28;20041;-62
2022/12/26 01:50:32;;;;;;;2.85;1.85;;;9.60;99.90;;;;;;5040135;28;20697;-63
2022/12/26 01:53:04;;;;;;;3.42;1.80;;;9.60;99.90;;;;;;5023943;28;20076;-63
2022/12/26 01:55:31;;;;;;;2.40;1.48;;;9.60;99.90;;;;;;5040940;28;20045;-62
2022/12/26 01:58:01;;;;;;;4.78;1.85;;;9.60;99.90;;;;;;5040596;28;20067;-63
2022/12/26 02:00:27;;;;;;;4.15;2.20;;;9.60;99.90;;;;;;5038235;28;20189;-64
2022/12/26 02:05:38;;;;;;;2.88;1.80;;;9.60;99.90;;;;;;5041612;28;20555;-64
2022/12/26 02:08:11;;;;;;;4.78;1.77;;;9.60;99.90;;;;;;5043642;28;20045;-63
2022/12/26 02:10:51;;;;;;;5.20;2.83;;;9.60;99.90;;;;;;5039430;28;20033;-63
2022/12/26 02:13:18;;;;;;;4.25;2.17;;;9.60;99.90;;;;;;5042163;28;20040;-64
2022/12/26 02:15:44;;;;;;;4.28;1.83;;;9.60;99.90;;;;;;5039640;28;20461;-63
2022/12/26 02:18:10;;;;;;;5.38;1.90;;;9.60;99.90;;;;;;5043260;28;20041;-62
2022/12/26 02:20:50;;;;;;;;;;;9.60;99.90;;;;;;5045330;28;20224;-62
2022/12/26 02:23:28;;;;;;;3.72;1.80;;;9.60;99.90;;;;;;5042068;28;19916;-63
2022/12/26 02:26:18;;;;;;;2.65;1.70;;;9.60;99.90;;;;;;5041199;28;20073;-65
2022/12/26 02:29:17;;;;;;;9.57;1.90;;;9.50;99.90;;;;;;5043001;28;20040;-64
2022/12/26 02:31:55;;;;;;;1.67;1.35;;;9.60;99.90;;;;;;5043203;28;20067;-62
2022/12/26 02:34:26;;;;;;;3.92;1.63;;;9.60;99.90;;;;;;5043219;28;20051;-65
2022/12/26 02:36:58;;;;;;;4.43;2.15;;;9.60;99.90;;;;;;5040187;28;20791;-64
2022/12/26 02:40:08;;;;;;;5.18;1.88;;;9.60;99.90;;;;;;5046592;28;20036;-63
2022/12/26 02:42:57;;;;;;;4.28;1.58;;;9.60;99.90;;;;;;5042311;28;20041;-65
2022/12/26 02:48:42;;;;;;;4.43;1.65;;;9.60;99.90;;;;;;5038330;28;20045;-63
2022/12/26 03:14:45;;;;;;;2.38;1.17;;;9.50;99.90;;;;;;5039131;28;20041;-64
2022/12/26 03:17:21;;;;;;;4.35;1.48;;;9.40;99.90;;;;;;5039740;28;20529;-63
2022/12/26 03:19:58;;;;;;;4.63;1.45;;;9.40;99.90;;;;;;5043779;28;20141;-62
2022/12/26 03:22:40;;;;;;;3.92;1.50;;;9.40;99.90;;;;;;5035362;28;20139;-62
2022/12/26 03:27:54;;;;;;;2.78;1.35;;;9.40;99.90;;;;;;5040097;28;20070;-61
2022/12/26 03:34:15;;;;;;;4.07;1.95;;;9.40;99.90;;;;;;5040939;28;19917;-61
2022/12/26 03:35:50;;;;;;;3.60;1.20;;;9.40;99.90;;;;;;5038219;28;20111;-60
2022/12/26 03:38:19;;;;;;;;;;;9.40;99.90;;;;;;5040381;28;20302;-62
2022/12/26 04:45:05;;;;;;;3.45;1.52;;;9.30;99.90;;;;;;5043304;28;20049;-64
2022/12/26 04:47:32;;;;;;;5.53;1.85;;;9.30;99.90;;;;;;5039658;28;20102;-64
2022/12/26 04:50:13;;;;;;;3.13;1.55;;;9.20;99.90;;;;;;5043426;28;20037;-63
2022/12/26 04:52:58;;;;;;;6.47;1.35;;;9.20;99.90;;;;;;5040999;28;20779;-63
2022/12/26 04:55:32;;;;;;;2.72;1.40;;;9.20;99.90;;;;;;5040366;28;20045;-64
2022/12/26 04:57:58;;;;;;;2.60;1.30;;;9.30;99.90;;;;;;5037704;28;20037;-60
2022/12/26 05:00:26;;;;;;;8.52;2.25;;;9.20;99.90;;;;;;5043434;28;20640;-63
2022/12/26 05:09:44;;;;;;;5.93;2.10;;;9.30;99.90;;;;;;5016799;28;20080;-63
2022/12/26 05:11:38;;;;;;;6.10;1.73;;;9.30;99.90;;;;;;5039335;28;20057;-62
2022/12/26 05:14:04;;;;;;;;;;;9.20;99.90;;;;;;5042123;28;20048;-63
2022/12/26 05:30:25;;;;;;;2.95;0.77;;;9.10;99.90;;;;;;5032471;28;20055;-62
2022/12/26 05:35:36;;;;;;;1.08;0.57;;;9.10;99.90;;;;;;5042456;28;19983;-63
2022/12/26 05:38:02;;;;;;;3.58;1.10;;;9.10;99.90;;;;;;5042331;28;20045;-63
2022/12/26 05:40:28;;;;;;;2.78;0.77;;;9.10;99.90;;;;;;5040407;28;20065;-62
2022/12/26 05:42:53;;;;;;;;;;;9.00;99.90;;;;;;5041289;28;20126;-64
2022/12/26 05:45:19;;;;;;;0.70;0.50;;;9.00;99.90;;;;;;5041924;28;19928;-60
2022/12/26 05:47:45;;;;;;;3.72;0.43;;;9.00;99.90;;;;;;5042073;28;20707;-61
2022/12/26 05:50:10;;;;;;;;;;;9.00;99.90;;;;;;5044699;28;20045;-60
2022/12/26 05:52:36;;;;;;;0.93;0.60;;;9.00;99.90;;;;;;5037748;28;19928;-63
2022/12/26 05:55:01;;;;;;;1.27;0.50;;;9.00;99.90;;;;;;5042150;28;20119;-59
2022/12/26 05:57:27;;;;;;;;;;;9.00;99.90;;;;;;5039777;28;20489;-61
2022/12/26 05:59:53;;;;;;;0.90;0.40;;;9.00;99.90;;;;;;5042574;28;19920;-62
2022/12/26 06:02:18;;;;;;;0.85;0.57;;;9.00;99.90;;;;;;5032160;28;20135;-63
2022/12/26 06:04:44;;;;;;;2.28;1.00;;;9.00;99.90;;;;;;5032935;28;20056;-60
2022/12/26 06:07:09;;;;;;;;;;;8.90;99.90;;;;;;5039814;28;20052;-60
2022/12/26 06:09:35;;;;;;;2.08;1.33;;;8.90;99.90;;;;;;5045676;28;19982;-60
2022/12/26 06:12:00;;;;;;;;;;;8.90;99.90;;;;;;5042345;28;20045;-62
2022/12/26 06:14:26;;;;;;;3.42;1.48;;;9.00;99.90;;;;;;5043923;28;19917;-62
2022/12/26 06:16:52;;;;;;;;;;;8.90;99.90;;;;;;5041713;28;20543;-61
2022/12/26 06:19:18;;;;;;;3.40;1.35;;;8.90;99.90;;;;;;5039784;28;19916;-60
2022/12/26 06:21:43;;;;;;;;;;;8.90;99.90;;;;;;5041962;28;20508;-63
2022/12/26 06:24:09;;;;;;;2.60;1.30;;;9.00;99.90;;;;;;5043631;28;19917;-62
2022/12/26 06:26:35;;;;;;;1.98;1.00;;;9.00;99.90;;;;;;5035101;28;20049;-62
2022/12/26 06:29:00;;;;;;;;;;;9.00;99.90;;;;;;5035273;28;20040;-62
2022/12/26 06:31:26;;;;;;;1.42;1.27;;;9.00;99.90;;;;;;5036980;28;20035;-62
2022/12/26 06:33:57;;;;;;;1.80;1.38;;;9.00;99.90;;;;;;5041636;28;20036;-62
2022/12/26 06:36:25;;;;;;;4.70;1.60;;;9.00;99.90;;;;;;5040508;28;20045;-61
2022/12/26 06:38:51;;;;;;;4.13;1.70;;;9.00;99.90;;;;;;5040978;28;20055;-61
2022/12/26 06:41:19;;;;;;;5.30;1.80;;;8.90;99.90;;;;;;5038556;28;20033;-63
2022/12/26 06:43:46;;;;;;;4.93;1.60;;;8.90;99.90;;;;;;5043322;28;20041;-63
2022/12/26 06:46:14;;;;;;;2.47;1.10;;;8.90;99.90;;;;;;5042431;28;20139;-63
2022/12/26 06:48:40;;;;;;;1.52;1.00;;;8.90;99.90;;;;;;5045271;28;20556;-63
2022/12/26 06:51:12;;;;;;;6.35;1.42;;;8.90;99.90;;;;;;5041882;28;20043;-63
2022/12/26 06:53:38;;;;;;;2.17;1.42;;;8.80;99.90;;;;;;5040872;28;20040;-63
2022/12/26 06:56:08;;;;;;;;;;;8.80;99.90;;;;;;5039656;28;20041;-63
2022/12/26 06:58:34;;;;;;;1.25;0.90;;;8.80;99.90;;;;;;5038319;28;20224;-62
2022/12/26 07:01:03;;;;;;;;;;;8.80;99.90;;;;;;5034881;28;20375;-62
2022/12/26 07:03:29;;;;;;;2.50;1.15;;;8.80;99.90;;;;;;5044482;28;20522;-61
2022/12/26 07:05:54;;;;;;;;;;;8.80;99.90;;;;;;5041904;28;20050;-63
2022/12/26 07:08:20;;;;;;;1.33;1.10;;;8.80;99.90;;;;;;5044021;28;20369;-61
2022/12/26 07:10:46;;;;;;;;;;;8.80;99.90;;;;;;5035240;28;20382;-65
2022/12/26 07:13:12;;;;;;;4.22;1.65;;;8.80;99.90;;;;;;5040520;28;20292;-60
2022/12/26 07:15:37;;;;;;;;;;;8.80;99.90;;;;;;5037143;28;20094;-61
2022/12/26 07:18:03;;;;;;;2.22;1.15;;;8.70;99.90;;;;;;5036873;28;19971;-62
2022/12/26 07:20:28;;;;;;;;;;;8.70;99.90;;;;;;5042263;28;20041;-63
2022/12/26 07:22:54;;;;;;;1.65;0.70;;;8.60;99.90;;;;;;5034399;28;19983;-61
2022/12/26 07:25:20;;;;;;;0.77;0.77;;;8.50;99.90;;;;;;5039157;28;20100;-61
2022/12/26 07:27:46;;;;;;;2.05;0.70;;;8.40;99.90;;;;;;5041271;28;20045;-62
2022/12/26 07:30:11;;;;;;;0.50;0.50;;;8.30;99.90;;;;;;5043589;28;20040;-61
2022/12/26 07:32:37;;;;;;;1.10;0.50;;;8.30;99.90;;;;;;5043649;28;20079;-63
2022/12/26 07:35:03;;;;;;;;;;;8.20;99.90;;;;;;5046559;28;20060;-61
2022/12/26 07:37:28;;;;;;;0.70;0.50;;;8.20;99.90;;;;;;5044155;28;19920;-63
2022/12/26 07:39:54;;;;;;;1.30;0.45;;;8.20;99.90;;;;;;5046384;28;20086;-63
2022/12/26 07:42:20;;;;;;;0.70;0.43;;;8.20;99.90;;;;;;5039759;28;20036;-62
2022/12/26 07:44:45;;;;;;;0.55;0.35;;;8.20;99.90;;;;;;5043314;28;20048;-63
2022/12/26 07:47:11;;;;;;;;;;;8.20;99.90;;;;;;5046630;28;20045;-63
2022/12/26 07:49:36;;;;;;;2.28;0.20;;;8.30;99.90;;;;;;5047861;28;19923;-64
2022/12/26 07:52:03;;;;;;;;;;;8.30;99.90;;;;;;5043949;28;20037;-63
2022/12/26 07:54:30;;;;;;;1.00;0.38;;;8.30;99.90;;;;;;5047963;28;19932;-64
2022/12/26 07:56:56;;;;;;;2.85;0.40;;;8.20;99.90;;;;;;5044196;28;20056;-62
2022/12/26 07:59:22;;;;;;;;;;;8.30;99.90;;;;;;5042904;28;20036;-62
2022/12/26 08:01:47;;;;;;;0.22;0.10;;;8.20;99.90;;;;;;5040368;28;19921;-63
2022/12/26 08:04:13;;;;;;;;;;;8.20;99.90;;;;;;5046246;28;20378;-62
2022/12/26 08:06:38;;;;;;;1.55;0.32;;;8.20;99.90;;;;;;5043028;28;19944;-63
2022/12/26 08:09:04;;;;;;;;;;;8.20;99.90;;;;;;5047787;28;20033;-55
2022/12/26 08:11:33;;;;;;;0.30;0.30;;;8.20;99.90;;;;;;5044842;28;19973;-63
2022/12/26 08:13:58;;;;;;;0.82;0.30;;;8.20;99.90;;;;;;5045983;28;20039;-62
2022/12/26 08:16:24;;;;;;;;;;;8.20;99.90;;;;;;5043198;28;20029;-61
2022/12/26 08:18:50;;;;;;;1.00;0.30;;;8.20;99.90;;;;;;5047599;28;19920;-62
2022/12/26 08:21:16;;;;;;;1.98;0.43;;;8.10;99.90;;;;;;5045495;28;20539;-63
2022/12/26 08:23:41;;;;;;;0.90;0.45;;;8.10;99.90;;;;;;5045306;28;20463;-64
2022/12/26 08:26:09;;;;;;;;;;;8.20;99.90;;;;;;5032528;28;20050;-61
2022/12/26 08:28:35;;;;;;;0.55;0.30;;;8.20;99.90;;;;;;5024321;28;19993;-62
2022/12/26 08:31:03;;;;;;;;;;;8.20;99.90;;;;;;5036575;28;20520;-63
2022/12/26 08:33:29;;;;;;;0.43;0.38;;;8.30;99.90;;;;;;5043585;28;20066;-61
2022/12/26 08:35:55;;;;;;;;;;;8.20;99.90;;;;;;5042192;28;20101;-62
2022/12/26 08:38:20;;;;;;;0.60;0.40;;;8.20;99.90;;;;;;5037953;28;20506;-62
2022/12/26 08:40:54;;;;;;;0.38;0.30;;;8.20;99.90;;;;;;5040011;28;20437;-62
2022/12/26 08:43:21;;;;;;;0.50;0.50;;;8.20;99.90;;;;;;5038303;28;20033;-63
2022/12/26 08:45:47;;;;;;;0.90;0.50;;;8.20;99.90;;;;;;5045154;28;20068;-64
2022/12/26 08:48:14;;;;;;;2.47;0.73;;;8.20;99.90;;;;;;5041372;28;20033;-61
2022/12/26 08:50:39;;;;;;;2.70;0.65;;;8.30;99.90;;;;;;5041367;28;20473;-63
2022/12/26 08:53:05;;;;;;;;;;;8.30;99.90;;;;;;5045237;28;20079;-61
2022/12/26 08:55:31;;;;;;;1.42;0.60;;;8.30;99.90;;;;;;5040308;28;19987;-60
2022/12/26 08:57:56;;;;;;;2.78;0.60;;;8.30;99.90;;;;;;5042262;28;20504;-63
2022/12/26 09:00:25;;;;;;;;;;;8.30;99.90;;;;;;5042097;28;20041;-64
2022/12/26 09:02:50;;;;;;;1.13;0.70;;;8.30;99.90;;;;;;5035118;28;19916;-61
2022/12/26 09:05:16;;;;;;;;;;;8.30;99.90;;;;;;5039801;28;20082;-63
2022/12/26 09:07:42;;;;;;;3.60;0.60;;;8.20;99.90;;;;;;5039863;28;20452;-63
2022/12/26 09:10:07;;;;;;;;;;;8.20;99.90;;;;;;5037555;28;20515;-63
2022/12/26 09:12:33;;;;;;;2.45;0.40;;;8.20;99.90;;;;;;5035733;28;19952;-62
2022/12/26 09:14:58;;;;;;;3.88;0.60;;;8.20;99.90;;;;;;5043839;28;20055;-63
2022/12/26 09:17:25;;;;;;;;;;;8.20;99.90;;;;;;5043181;28;20049;-57
2022/12/26 09:19:51;;;;;;;0.90;0.30;;;8.20;99.90;;;;;;5045123;28;19921;-62
2022/12/26 09:25:00;;;;;;;0.98;0.30;;;8.20;99.90;;;;;;5043599;28;20044;-63
2022/12/26 09:27:27;;;;;;;;;;;8.30;99.90;;;;;;5040987;28;20045;-62
2022/12/26 09:29:52;;;;;;;0.67;0.30;;;8.20;99.90;;;;;;5043977;28;19967;-62
2022/12/26 09:32:18;;;;;;;;;;;8.30;99.90;;;;;;5038533;28;20487;-63
2022/12/26 09:34:43;;;;;;;0.50;0.40;;;8.40;99.90;;;;;;5044811;28;20020;-63
2022/12/26 09:37:09;;;;;;;0.40;0.30;;;8.50;99.90;;;;;;5036040;28;20460;-62
2022/12/26 09:39:35;;;;;;;;;;;8.60;99.90;;;;;;5046875;28;20408;-63
2022/12/26 09:42:29;;;;;;;0.68;0.38;;;8.70;99.90;;;;;;5042088;28;19967;-63
2022/12/26 09:45:15;;;;;;;0.65;0.52;;;8.60;99.90;;;;;;5039786;28;20064;-62
2022/12/26 09:47:40;;;;;;;1.45;0.73;;;8.60;99.90;;;;;;5043147;28;20833;-63
2022/12/26 09:50:25;;;;;;;;;;;8.50;99.90;;;;;;5043611;28;20048;-63
2022/12/26 09:52:55;;;;;;;3.60;0.90;;;8.50;99.90;;;;;;5041128;28;20369;-63
2022/12/26 09:55:49;;;;;;;0.85;0.75;;;8.40;99.90;;;;;;5035723;28;20099;-62
2022/12/26 09:58:28;;;;;;;2.28;0.80;;;8.50;99.90;;;;;;5047404;28;20036;-62
2022/12/26 10:01:13;;;;;;;1.10;1.00;;;8.50;99.90;;;;;;5041920;28;20038;-63
2022/12/26 10:03:43;;;;;;;3.78;1.33;;;8.60;99.90;;;;;;5038109;28;20041;-64
2022/12/26 10:06:23;;;;;;;1.58;0.95;;;8.60;99.90;;;;;;5036870;28;20044;-63
2022/12/26 10:09:07;;;;;;;2.78;1.00;;;8.60;99.90;;;;;;5037645;28;20354;-64
2022/12/26 10:11:43;;;;;;;1.58;1.00;;;8.60;99.90;;;;;;5030530;28;20036;-64
2022/12/26 10:14:18;;;;;;;3.15;1.40;;;8.60;99.90;;;;;;5040451;28;20056;-66
2022/12/26 10:16:57;;;;;;;2.10;1.23;;;8.60;99.90;;;;;;5039279;28;20056;-64
2022/12/26 10:19:46;;;;;;;1.40;1.30;;;8.60;99.90;;;;;;5032968;28;20045;-64
2022/12/26 10:22:51;;;;;;;4.20;2.20;;;8.60;99.90;;;;;;5038533;28;20048;-64
2022/12/26 10:25:21;;;;;;;2.72;1.50;;;8.60;99.90;;;;;;5045704;28;20098;-64
2022/12/26 10:27:49;;;;;;;7.75;1.40;;;8.60;99.90;;;;;;5039751;28;20107;-64
2022/12/26 10:30:21;;;;;;;4.30;1.67;;;8.60;99.90;;;;;;5041172;28;20048;-64
2022/12/26 10:32:52;;;;;;;2.42;1.25;;;8.60;99.90;;;;;;5031734;28;20556;-63
2022/12/26 10:35:30;;;;;;;5.07;1.10;;;8.60;99.90;;;;;;5025134;28;20123;-64
2022/12/26 10:38:00;;;;;;;2.63;1.38;;;8.60;99.90;;;;;;5031224;28;20144;-62
2022/12/26 10:40:33;;;;;;;2.33;1.20;;;8.60;99.90;;;;;;5042449;28;20080;-64
2022/12/26 10:43:16;;;;;;;5.30;1.20;;;8.60;99.90;;;;;;5041532;28;20063;-64
2022/12/26 10:45:55;;;;;;;4.03;1.25;;;8.60;99.90;;;;;;5036483;28;20462;-64
2022/12/26 10:48:24;;;;;;;3.20;1.27;;;8.70;99.90;;;;;;5039813;28;20041;-62
2022/12/26 10:50:49;;;;;;;3.63;1.10;;;8.70;99.90;;;;;;5036262;28;20037;-66
2022/12/26 10:53:16;;;;;;;;;;;8.70;99.90;;;;;;5036371;28;20088;-64
2022/12/26 10:55:42;;;;;;;3.22;1.00;;;8.70;99.90;;;;;;5043002;28;20007;-65
2022/12/26 10:58:20;;;;;;;;;;;8.70;99.90;;;;;;5037007;28;20113;-63
2022/12/26 11:00:46;;;;;;;3.83;1.10;;;8.70;99.90;;;;;;5037319;28;20083;-64
2022/12/26 11:03:13;;;;;;;;;;;8.80;99.90;;;;;;5043852;28;20147;-66
2022/12/26 11:05:47;;;;;;;4.28;1.15;;;8.80;99.90;;;;;;5041391;28;19959;-65
2022/12/26 11:08:18;;;;;;;104.20;23.90;;;8.80;99.90;;;;;;5044970;28;20049;-65
2022/12/26 11:11:00;;;;;;;14.98;4.22;;;8.90;99.90;;;;;;5040979;28;20037;-64
2022/12/26 11:13:26;;;;;;;7.88;2.20;;;8.80;99.90;;;;;;5042355;28;20078;-65
2022/12/26 11:15:52;;;;;;;7.22;4.00;;;8.90;99.90;;;;;;5036037;28;20112;-66
2022/12/26 11:18:38;;;;;;;;;;;9.00;99.90;;;;;;5037549;28;20091;-68
2022/12/26 11:21:16;;;;;;;16.25;3.10;;;8.90;99.90;;;;;;5033195;28;19917;-65
2022/12/26 11:23:43;;;;;;;10.60;2.53;;;9.00;99.90;;;;;;5041622;28;20051;-63
2022/12/26 11:26:29;;;;;;;4.10;1.20;;;9.00;99.90;;;;;;5031785;28;20484;-69
2022/12/26 11:29:24;;;;;;;3.70;1.20;;;9.10;99.90;;;;;;5037827;28;20041;-65
2022/12/26 11:31:55;;;;;;;2.53;0.85;;;9.10;99.90;;;;;;5034506;28;20104;-65
2022/12/26 11:34:37;;;;;;;9.80;2.05;;;9.10;99.90;;;;;;5035178;28;20056;-65
2022/12/26 11:37:05;;;;;;;8.23;1.33;;;9.10;99.90;;;;;;5033009;28;20121;-65
2022/12/26 11:39:35;;;;;;;5.05;1.20;;;9.10;99.90;;;;;;5040950;28;20628;-61
2022/12/26 11:42:09;;;;;;;4.68;1.33;;;9.00;99.90;;;;;;5036657;28;20110;-63
2022/12/26 11:44:39;;;;;;;1.90;0.90;;;8.90;99.90;;;;;;5027198;28;20163;-63
2022/12/26 11:47:13;;;;;;;2.58;1.40;;;8.90;99.90;;;;;;5044324;28;20048;-66
2022/12/26 11:49:50;;;;;;;3.20;1.00;;;8.80;99.90;;;;;;5038215;28;20485;-63
2022/12/26 11:52:51;;;;;;;10.75;1.48;;;8.80;99.90;;;;;;5035511;28;20047;-61
2022/12/26 11:55:26;;;;;;;3.17;1.13;;;8.70;99.90;;;;;;5018129;28;20049;-64
2022/12/26 11:58:07;;;;;;;3.55;1.10;;;8.70;99.90;;;;;;5032318;28;20412;-64
2022/12/26 12:00:48;;;;;;;5.95;1.60;;;8.70;99.90;;;;;;5038261;28;20201;-63
2022/12/26 12:03:36;;;;;;;6.18;2.08;;;8.60;99.90;;;;;;5043014;28;20037;-63
2022/12/26 12:06:10;;;;;;;2.38;1.50;;;8.60;99.90;;;;;;5034315;28;20045;-62
2022/12/26 12:09:14;;;;;;;6.10;1.88;;;8.50;99.90;;;;;;5035778;28;20037;-63
2022/12/26 12:12:06;;;;;;;4.60;1.70;;;8.50;99.90;;;;;;5016510;28;20056;-63
2022/12/26 12:14:49;;;;;;;4.75;1.15;;;8.50;99.90;;;;;;5041404;28;20455;-62
2022/12/26 12:17:38;;;;;;;3.25;1.30;;;8.60;99.90;;;;;;5035482;28;20505;-62
2022/12/26 12:20:28;;;;;;;2.92;1.23;;;8.50;99.90;;;;;;5037879;28;20087;-62
2022/12/26 12:23:13;;;;;;;3.53;1.60;;;8.50;99.90;;;;;;5037178;28;20136;-64
2022/12/26 12:25:51;;;;;;;3.20;1.30;;;8.50;99.90;;;;;;5062604;28;20044;-64
2022/12/26 12:28:42;;;;;;;4.78;1.40;;;8.50;99.90;;;;;;5040407;28;20425;-64
2022/12/26 12:31:11;;;;;;;3.83;1.30;;;8.50;99.90;;;;;;5037736;28;20036;-65
2022/12/26 12:34:03;;;;;;;2.10;1.10;;;8.40;99.90;;;;;;5043649;28;20033;-65
2022/12/26 12:36:38;;;;;;;5.85;1.58;;;8.40;99.90;;;;;;5037967;28;20517;-64
2022/12/26 12:39:20;;;;;;;5.90;1.98;;;8.40;99.90;;;;;;5038120;28;20503;-64
2022/12/26 12:41:58;;;;;;;5.45;1.27;;;8.40;99.90;;;;;;5043866;28;20072;-64
2022/12/26 12:44:42;;;;;;;6.15;1.45;;;8.30;99.90;;;;;;5040595;28;20041;-65
2022/12/26 12:47:29;;;;;;;5.97;1.40;;;8.30;99.90;;;;;;5037082;28;20456;-64
2022/12/26 12:50:27;;;;;;;7.13;1.50;;;8.40;99.90;;;;;;5049789;28;20032;-65
2022/12/26 12:53:18;;;;;;;5.20;1.45;;;8.40;99.90;;;;;;5041739;28;20044;-63
2022/12/26 12:55:59;;;;;;;4.57;1.42;;;8.40;99.90;;;;;;5041378;28;20042;-64
2022/12/26 12:58:44;;;;;;;4.00;1.33;;;8.40;99.90;;;;;;5045126;28;20048;-63
2022/12/26 13:01:23;;;;;;;2.70;1.25;;;8.50;99.90;;;;;;5041437;28;20091;-63
2022/12/26 13:04:11;;;;;;;3.35;1.17;;;8.50;99.90;;;;;;5048844;28;20128;-65
2022/12/26 13:06:54;;;;;;;2.75;0.95;;;8.60;99.90;;;;;;5042634;28;20044;-64
2022/12/26 13:09:35;;;;;;;4.35;1.20;;;8.50;99.90;;;;;;5039424;28;20155;-65
2022/12/26 13:12:07;;;;;;;2.42;0.90;;;8.50;99.90;;;;;;5041613;28;20056;-64
2022/12/26 13:14:43;;;;;;;3.63;1.27;;;8.40;99.90;;;;;;5048649;28;20055;-64
2022/12/26 13:17:13;;;;;;;6.22;1.70;;;8.40;99.90;;;;;;5038422;28;20048;-64
2022/12/26 13:19:50;;;;;;;7.00;1.05;;;8.40;99.90;;;;;;5049536;28;20045;-64
2022/12/26 13:24:22;;;;;;;8.35;1.70;;;8.40;99.90;;;;;;5038869;28;20629;-65
2022/12/26 13:25:17;;;;;;;2.70;1.25;;;8.40;99.90;;;;;;5032012;28;20064;-64
2022/12/26 13:27:45;;;;;;;2.13;0.90;;;8.40;99.90;;;;;;5040527;28;20071;-64
2022/12/26 13:30:14;;;;;;;4.03;1.63;;;8.30;99.90;;;;;;5022283;28;20081;-64
2022/12/26 13:32:40;;;;;;;3.13;1.10;;;8.30;99.90;;;;;;5042856;28;20103;-65
2022/12/26 13:35:05;;;;;;;;;;;8.30;99.90;;;;;;5033235;28;20037;-64
2022/12/26 13:37:37;;;;;;;3.03;1.20;;;8.20;99.90;;;;;;5041692;28;19920;-63
2022/12/26 13:40:18;;;;;;;2.10;1.20;;;8.20;99.90;;;;;;5046336;28;20037;-62
2022/12/26 13:45:42;;;;;;;5.70;1.60;;;8.10;99.90;;;;;;5046992;28;20045;-63
2022/12/26 13:48:17;;;;;;;4.40;1.17;;;8.10;99.90;;;;;;5040031;28;20040;-62
2022/12/26 13:51:01;;;;;;;2.95;1.10;;;8.10;99.90;;;;;;5040765;28;20075;-63
2022/12/26 13:53:36;;;;;;;3.58;0.85;;;8.00;99.90;;;;;;5031810;28;20120;-62
2022/12/26 13:56:12;;;;;;;4.22;1.23;;;7.90;99.90;;;;;;5035972;28;20041;-64
2022/12/26 13:58:44;;;;;;;;;;;7.90;99.90;;;;;;5042480;28;20098;-65
2022/12/26 14:01:28;;;;;;;4.18;0.88;;;8.00;99.90;;;;;;5038016;28;19923;-63
2022/12/26 14:04:52;;;;;;;7.00;1.35;;;8.00;99.90;;;;;;5043959;28;20040;-62
2022/12/26 14:07:53;;;;;;;3.83;0.90;;;7.90;99.90;;;;;;5001818;28;20038;-63
2022/12/26 14:10:49;;;;;;;2.45;1.45;;;8.00;99.90;;;;;;4984774;28;20509;-64
2022/12/26 14:13:42;;;;;;;4.82;1.48;;;7.90;99.90;;;;;;5038305;28;20041;-65
2022/12/26 14:16:32;;;;;;;3.53;1.55;;;8.00;99.90;;;;;;5035769;28;20025;-66
2022/12/26 14:18:57;;;;;;;7.82;1.67;;;8.00;99.90;;;;;;5037985;28;20091;-64
2022/12/26 14:21:41;;;;;;;;;;;7.90;99.90;;;;;;5033357;28;20529;-66
2022/12/26 14:24:23;;;;;;;1.50;0.98;;;7.80;99.90;;;;;;5034716;28;20440;-64
2022/12/26 14:27:22;;;;;;;2.13;0.90;;;7.70;99.90;;;;;;5033142;28;20045;-65
2022/12/26 14:29:54;;;;;;;2.63;0.70;;;7.50;99.90;;;;;;5026575;28;20087;-64
2022/12/26 14:32:45;;;;;;;2.42;0.98;;;7.30;99.90;;;;;;5038391;28;20037;-65
2022/12/26 14:35:30;;;;;;;1.17;0.30;;;7.20;99.90;;;;;;5039763;28;20676;-65
2022/12/26 14:38:19;;;;;;;1.45;0.40;;;7.20;99.90;;;;;;5040486;28;20044;-65
2022/12/26 14:41:00;;;;;;;1.98;0.40;;;7.20;99.90;;;;;;5034655;28;20039;-65
2022/12/26 14:43:33;;;;;;;1.38;0.50;;;7.10;99.90;;;;;;5039133;28;20583;-65
2022/12/26 14:45:59;;;;;;;0.47;0.40;;;7.10;99.90;;;;;;5020216;28;20056;-65
2022/12/26 14:48:25;;;;;;;2.35;0.32;;;7.00;99.90;;;;;;5037300;28;20827;-65
2022/12/26 14:51:02;;;;;;;;;;;6.90;99.90;;;;;;5035670;28;20033;-64
2022/12/26 14:53:34;;;;;;;0.30;0.30;;;6.90;99.90;;;;;;5039706;28;19924;-64
2022/12/26 14:56:09;;;;;;;0.85;0.50;;;7.00;99.90;;;;;;5036099;28;20041;-65
2022/12/26 14:58:37;;;;;;;0.50;0.32;;;6.90;99.90;;;;;;5034810;28;20037;-64
2022/12/26 15:01:08;;;;;;;1.30;0.50;;;6.90;99.90;;;;;;5038780;28;20061;-67
2022/12/26 15:03:55;;;;;;;0.85;0.40;;;7.00;99.90;;;;;;5036345;28;20040;-65
2022/12/26 15:06:55;;;;;;;10.02;0.65;;;7.00;99.90;;;;;;5034760;28;20044;-65
2022/12/26 15:09:26;;;;;;;4.38;0.68;;;7.00;99.90;;;;;;5041762;28;20171;-64
2022/12/26 15:12:33;;;;;;;1.70;0.50;;;7.00;99.90;;;;;;5040168;28;20053;-64
2022/12/26 15:15:36;;;;;;;1.75;0.60;;;6.90;99.90;;;;;;4999752;28;20046;-65
2022/12/26 15:18:20;;;;;;;2.60;0.57;;;6.90;99.90;;;;;;5039708;28;20040;-65
2022/12/26 15:21:03;;;;;;;1.60;0.50;;;7.00;99.90;;;;;;5039162;28;20052;-64
2022/12/26 15:24:06;;;;;;;3.78;0.50;;;7.00;99.90;;;;;;5040674;28;20049;-63
2022/12/26 15:26:49;;;;;;;1.65;0.93;;;6.90;99.90;;;;;;5029407;28;20117;-63
2022/12/26 15:29:46;;;;;;;1.65;1.00;;;6.90;99.90;;;;;;5038417;28;20033;-64
2022/12/26 15:32:36;;;;;;;2.25;1.55;;;6.80;99.90;;;;;;5035302;28;20481;-64
2022/12/26 15:35:20;;;;;;;3.70;1.65;;;6.80;99.90;;;;;;5039784;28;20552;-64
2022/12/26 15:38:03;;;;;;;7.80;2.10;;;6.80;99.90;;;;;;5039029;28;20048;-64
2022/12/26 15:40:34;;;;;;;5.32;2.30;;;6.80;99.90;;;;;;5032778;28;20359;-65
2022/12/26 15:43:19;;;;;;;4.05;3.08;;;6.70;99.90;;;;;;5034887;28;20489;-64
2022/12/26 15:45:50;;;;;;;7.70;3.67;;;6.70;99.90;;;;;;5035630;28;20038;-64
2022/12/26 15:48:24;;;;;;;6.13;3.80;;;6.60;99.90;;;;;;5038246;28;20508;-64
2022/12/26 15:50:55;;;;;;;9.82;5.13;;;6.60;99.90;;;;;;5039828;28;20037;-64